sensor_id;sensor_type;location;lat;lon;timestamp;pressure;altitude;pressure_sealevel;temperature;humidity
75513;BME280;64090;49.770;18.760;2022-11-25T00:01:45;97589.06;;;2.81;88.54
75513;BME280;64090;49.770;18.760;2022-11-25T00:03:49;97587.84;;;2.81;88.61
75513;BME280;64090;49.770;18.760;2022-11-25T00:05:52;97589.62;;;2.81;88.54
75513;BME280;64090;49.770;18.760;2022-11-25T00:07:54;97593.60;;;2.83;88.53
75513;BME280;64090;49.770;18.760;2022-11-25T00:09:57;97591.40;;;2.88;88.45
75513;BME280;64090;49.770;18.760;2022-11-25T00:12:00;97590.31;;;2.88;88.34
75513;BME280;64090;49.770;18.760;2022-11-25T00:14:04;97592.56;;;2.90;88.46
75513;BME280;64090;49.770;18.760;2022-11-25T00:16:09;97593.92;;;2.92;88.69
75513;BME280;64090;49.770;18.760;2022-11-25T00:18:12;97593.84;;;2.93;88.69
75513;BME280;64090;49.770;18.760;2022-11-25T00:20:15;97593.50;;;2.94;88.68
75513;BME280;64090;49.770;18.760;2022-11-25T00:22:18;97595.60;;;2.96;88.63
75513;BME280;64090;49.770;18.760;2022-11-25T00:24:21;97597.23;;;2.96;88.47
75513;BME280;64090;49.770;18.760;2022-11-25T00:26:25;97600.89;;;2.97;88.59
75513;BME280;64090;49.770;18.760;2022-11-25T00:28:28;97603.41;;;3.00;88.33
75513;BME280;64090;49.770;18.760;2022-11-25T00:30:31;97599.77;;;3.00;88.23
75513;BME280;64090;49.770;18.760;2022-11-25T00:32:34;97599.11;;;3.01;88.28
75513;BME280;64090;49.770;18.760;2022-11-25T00:34:37;97602.84;;;3.04;88.32
75513;BME280;64090;49.770;18.760;2022-11-25T00:36:40;97602.18;;;3.03;88.46
75513;BME280;64090;49.770;18.760;2022-11-25T00:38:44;97602.94;;;3.03;88.43
75513;BME280;64090;49.770;18.760;2022-11-25T00:40:51;97603.06;;;3.02;88.37
75513;BME280;64090;49.770;18.760;2022-11-25T00:43:14;97605.66;;;3.02;88.35
75513;BME280;64090;49.770;18.760;2022-11-25T00:45:35;97605.20;;;3.03;88.24
75513;BME280;64090;49.770;18.760;2022-11-25T00:47:38;97611.70;;;3.03;88.14
75513;BME280;64090;49.770;18.760;2022-11-25T00:49:43;97611.77;;;3.04;88.08
75513;BME280;64090;49.770;18.760;2022-11-25T00:51:47;97612.22;;;3.03;88.03
75513;BME280;64090;49.770;18.760;2022-11-25T00:53:49;97615.77;;;3.04;88.02
75513;BME280;64090;49.770;18.760;2022-11-25T00:56:00;97611.27;;;3.03;88.29
75513;BME280;64090;49.770;18.760;2022-11-25T00:58:15;97610.77;;;3.03;88.26
75513;BME280;64090;49.770;18.760;2022-11-25T01:00:18;97614.13;;;3.05;88.22
75513;BME280;64090;49.770;18.760;2022-11-25T01:02:21;97616.34;;;3.07;88.24
75513;BME280;64090;49.770;18.760;2022-11-25T01:04:24;97614.63;;;3.09;88.14
75513;BME280;64090;49.770;18.760;2022-11-25T01:06:27;97615.91;;;3.08;87.90
75513;BME280;64090;49.770;18.760;2022-11-25T01:08:31;97615.61;;;3.07;87.96
75513;BME280;64090;49.770;18.760;2022-11-25T01:10:34;97612.55;;;3.07;87.81
75513;BME280;64090;49.770;18.760;2022-11-25T01:12:37;97615.14;;;3.05;87.91
75513;BME280;64090;49.770;18.760;2022-11-25T01:14:40;97615.70;;;3.06;87.98
75513;BME280;64090;49.770;18.760;2022-11-25T01:16:42;97614.35;;;3.08;88.09
75513;BME280;64090;49.770;18.760;2022-11-25T01:18:46;97614.50;;;3.08;87.95
75513;BME280;64090;49.770;18.760;2022-11-25T01:20:49;97612.46;;;3.09;88.12
75513;BME280;64090;49.770;18.760;2022-11-25T01:22:52;97613.18;;;3.11;88.28
75513;BME280;64090;49.770;18.760;2022-11-25T01:24:55;97618.08;;;3.12;88.29
75513;BME280;64090;49.770;18.760;2022-11-25T01:26:58;97618.27;;;3.14;88.20
75513;BME280;64090;49.770;18.760;2022-11-25T01:29:06;97619.06;;;3.13;88.14
75513;BME280;64090;49.770;18.760;2022-11-25T01:31:13;97616.83;;;3.11;88.03
75513;BME280;64090;49.770;18.760;2022-11-25T01:33:16;97617.35;;;3.09;88.00
75513;BME280;64090;49.770;18.760;2022-11-25T01:35:19;97614.89;;;3.09;87.99
75513;BME280;64090;49.770;18.760;2022-11-25T01:37:22;97615.77;;;3.11;87.95
75513;BME280;64090;49.770;18.760;2022-11-25T01:39:25;97614.05;;;3.12;88.06
75513;BME280;64090;49.770;18.760;2022-11-25T01:41:34;97617.77;;;3.13;88.05
75513;BME280;64090;49.770;18.760;2022-11-25T01:43:37;97614.83;;;3.13;88.15
75513;BME280;64090;49.770;18.760;2022-11-25T01:45:40;97616.08;;;3.13;88.17
75513;BME280;64090;49.770;18.760;2022-11-25T01:47:43;97614.02;;;3.13;88.13
75513;BME280;64090;49.770;18.760;2022-11-25T01:50:02;97616.04;;;3.13;88.10
75513;BME280;64090;49.770;18.760;2022-11-25T01:54:11;97609.83;;;3.14;88.05
75513;BME280;64090;49.770;18.760;2022-11-25T01:56:16;97613.13;;;3.16;88.00
75513;BME280;64090;49.770;18.760;2022-11-25T01:58:26;97612.68;;;3.17;87.88
75513;BME280;64090;49.770;18.760;2022-11-25T02:00:31;97613.36;;;3.15;87.77
75513;BME280;64090;49.770;18.760;2022-11-25T02:02:34;97613.27;;;3.15;87.78
75513;BME280;64090;49.770;18.760;2022-11-25T02:04:38;97612.70;;;3.15;87.79
75513;BME280;64090;49.770;18.760;2022-11-25T02:06:48;97610.29;;;3.15;87.79
75513;BME280;64090;49.770;18.760;2022-11-25T02:08:58;97613.66;;;3.14;87.90
75513;BME280;64090;49.770;18.760;2022-11-25T02:11:03;97616.31;;;3.14;88.12
75513;BME280;64090;49.770;18.760;2022-11-25T02:13:09;97619.58;;;3.18;88.38
75513;BME280;64090;49.770;18.760;2022-11-25T02:15:13;97620.60;;;3.23;88.40
75513;BME280;64090;49.770;18.760;2022-11-25T02:17:17;97617.83;;;3.26;88.13
75513;BME280;64090;49.770;18.760;2022-11-25T02:19:28;97619.88;;;3.27;88.04
75513;BME280;64090;49.770;18.760;2022-11-25T02:21:40;97619.90;;;3.24;87.87
75513;BME280;64090;49.770;18.760;2022-11-25T02:24:04;97621.09;;;3.23;87.76
75513;BME280;64090;49.770;18.760;2022-11-25T02:26:11;97617.58;;;3.22;87.78
75513;BME280;64090;49.770;18.760;2022-11-25T02:28:26;97617.31;;;3.20;87.66
75513;BME280;64090;49.770;18.760;2022-11-25T02:30:29;97619.58;;;3.16;87.75
75513;BME280;64090;49.770;18.760;2022-11-25T02:32:32;97619.80;;;3.17;88.00
75513;BME280;64090;49.770;18.760;2022-11-25T02:34:35;97623.75;;;3.23;88.08
75513;BME280;64090;49.770;18.760;2022-11-25T02:36:38;97622.81;;;3.25;88.14
75513;BME280;64090;49.770;18.760;2022-11-25T02:38:48;97620.44;;;3.25;88.11
75513;BME280;64090;49.770;18.760;2022-11-25T02:43:07;97621.26;;;3.29;88.03
75513;BME280;64090;49.770;18.760;2022-11-25T02:45:12;97622.77;;;3.26;87.84
75513;BME280;64090;49.770;18.760;2022-11-25T02:47:18;97624.17;;;3.26;87.92
75513;BME280;64090;49.770;18.760;2022-11-25T02:49:21;97624.88;;;3.25;87.85
75513;BME280;64090;49.770;18.760;2022-11-25T02:51:27;97625.59;;;3.29;87.87
75513;BME280;64090;49.770;18.760;2022-11-25T02:56:36;97632.22;;;3.39;88.21
75513;BME280;64090;49.770;18.760;2022-11-25T02:58:38;97632.91;;;3.39;88.05
75513;BME280;64090;49.770;18.760;2022-11-25T03:00:40;97634.71;;;3.37;88.02
75513;BME280;64090;49.770;18.760;2022-11-25T03:02:42;97633.95;;;3.34;88.01
75513;BME280;64090;49.770;18.760;2022-11-25T03:04:43;97631.33;;;3.33;87.85
75513;BME280;64090;49.770;18.760;2022-11-25T03:06:45;97631.81;;;3.31;87.76
75513;BME280;64090;49.770;18.760;2022-11-25T03:08:47;97630.76;;;3.30;87.64
75513;BME280;64090;49.770;18.760;2022-11-25T03:10:50;97627.46;;;3.29;87.76
75513;BME280;64090;49.770;18.760;2022-11-25T03:12:52;97631.45;;;3.32;87.85
75513;BME280;64090;49.770;18.760;2022-11-25T03:14:54;97630.73;;;3.37;87.66
75513;BME280;64090;49.770;18.760;2022-11-25T03:16:56;97632.71;;;3.38;87.77
75513;BME280;64090;49.770;18.760;2022-11-25T03:18:57;97633.60;;;3.39;87.59
75513;BME280;64090;49.770;18.760;2022-11-25T03:22:43;97635.80;;;3.37;87.20
75513;BME280;64090;49.770;18.760;2022-11-25T03:26:20;97629.50;;;3.28;87.17
75513;BME280;64090;49.770;18.760;2022-11-25T03:29:57;97633.66;;;3.24;87.27
75513;BME280;64090;49.770;18.760;2022-11-25T03:32:00;97635.08;;;3.23;87.48
75513;BME280;64090;49.770;18.760;2022-11-25T03:34:09;97635.38;;;3.28;87.71
75513;BME280;64090;49.770;18.760;2022-11-25T03:36:12;97637.55;;;3.30;87.64
75513;BME280;64090;49.770;18.760;2022-11-25T03:38:15;97640.02;;;3.30;87.43
75513;BME280;64090;49.770;18.760;2022-11-25T03:40:18;97641.08;;;3.30;87.44
75513;BME280;64090;49.770;18.760;2022-11-25T03:42:21;97644.41;;;3.32;87.30
75513;BME280;64090;49.770;18.760;2022-11-25T03:44:23;97647.02;;;3.28;87.18
75513;BME280;64090;49.770;18.760;2022-11-25T03:46:26;97644.52;;;3.25;87.19
75513;BME280;64090;49.770;18.760;2022-11-25T03:48:29;97648.73;;;3.25;87.15
75513;BME280;64090;49.770;18.760;2022-11-25T03:50:32;97644.19;;;3.27;87.19
75513;BME280;64090;49.770;18.760;2022-11-25T03:52:35;97643.63;;;3.31;87.41
75513;BME280;64090;49.770;18.760;2022-11-25T03:54:38;97648.12;;;3.31;87.41
75513;BME280;64090;49.770;18.760;2022-11-25T03:56:41;97649.41;;;3.32;87.48
75513;BME280;64090;49.770;18.760;2022-11-25T03:58:44;97649.66;;;3.32;87.38
75513;BME280;64090;49.770;18.760;2022-11-25T04:00:47;97645.89;;;3.34;87.20
75513;BME280;64090;49.770;18.760;2022-11-25T04:02:50;97650.11;;;3.34;87.15
75513;BME280;64090;49.770;18.760;2022-11-25T04:04:53;97649.84;;;3.33;87.01
75513;BME280;64090;49.770;18.760;2022-11-25T04:06:56;97653.79;;;3.31;87.06
75513;BME280;64090;49.770;18.760;2022-11-25T04:08:58;97652.83;;;3.30;87.15
75513;BME280;64090;49.770;18.760;2022-11-25T04:11:01;97652.14;;;3.30;87.28
75513;BME280;64090;49.770;18.760;2022-11-25T04:13:04;97653.05;;;3.29;87.43
75513;BME280;64090;49.770;18.760;2022-11-25T04:15:07;97656.23;;;3.22;87.38
75513;BME280;64090;49.770;18.760;2022-11-25T04:17:11;97656.90;;;3.21;87.44
75513;BME280;64090;49.770;18.760;2022-11-25T04:19:14;97658.78;;;3.23;87.16
75513;BME280;64090;49.770;18.760;2022-11-25T04:21:16;97660.84;;;3.23;87.29
75513;BME280;64090;49.770;18.760;2022-11-25T04:23:20;97657.33;;;3.23;87.20
75513;BME280;64090;49.770;18.760;2022-11-25T04:25:23;97657.44;;;3.26;87.06
75513;BME280;64090;49.770;18.760;2022-11-25T04:27:25;97661.33;;;3.29;86.98
75513;BME280;64090;49.770;18.760;2022-11-25T04:29:28;97661.66;;;3.29;87.11
75513;BME280;64090;49.770;18.760;2022-11-25T04:31:31;97663.48;;;3.26;87.18
75513;BME280;64090;49.770;18.760;2022-11-25T04:33:34;97662.23;;;3.25;87.12
75513;BME280;64090;49.770;18.760;2022-11-25T04:35:37;97661.64;;;3.22;87.09
75513;BME280;64090;49.770;18.760;2022-11-25T04:37:40;97663.46;;;3.18;87.04
75513;BME280;64090;49.770;18.760;2022-11-25T04:39:43;97662.38;;;3.16;87.19
75513;BME280;64090;49.770;18.760;2022-11-25T04:41:45;97664.96;;;3.12;87.37
75513;BME280;64090;49.770;18.760;2022-11-25T04:43:48;97666.56;;;3.11;87.62
75513;BME280;64090;49.770;18.760;2022-11-25T04:45:51;97668.17;;;3.11;87.77
75513;BME280;64090;49.770;18.760;2022-11-25T04:48:14;97670.00;;;3.11;87.95
75513;BME280;64090;49.770;18.760;2022-11-25T04:50:20;97673.76;;;3.12;87.98
75513;BME280;64090;49.770;18.760;2022-11-25T04:52:24;97674.24;;;3.12;87.80
75513;BME280;64090;49.770;18.760;2022-11-25T04:54:26;97677.27;;;3.10;87.62
75513;BME280;64090;49.770;18.760;2022-11-25T04:56:29;97675.67;;;3.09;87.56
75513;BME280;64090;49.770;18.760;2022-11-25T04:58:32;97679.34;;;3.09;87.52
75513;BME280;64090;49.770;18.760;2022-11-25T05:00:54;97683.11;;;3.12;87.56
75513;BME280;64090;49.770;18.760;2022-11-25T05:02:57;97681.38;;;3.13;87.71
75513;BME280;64090;49.770;18.760;2022-11-25T05:04:59;97685.79;;;3.14;87.75
75513;BME280;64090;49.770;18.760;2022-11-25T05:07:02;97687.20;;;3.14;87.86
75513;BME280;64090;49.770;18.760;2022-11-25T05:09:05;97693.30;;;3.14;87.74
75513;BME280;64090;49.770;18.760;2022-11-25T05:11:08;97695.23;;;3.14;87.57
75513;BME280;64090;49.770;18.760;2022-11-25T05:13:11;97698.80;;;3.14;87.51
75513;BME280;64090;49.770;18.760;2022-11-25T05:15:14;97699.92;;;3.13;87.47
75513;BME280;64090;49.770;18.760;2022-11-25T05:17:22;97698.75;;;3.13;87.42
75513;BME280;64090;49.770;18.760;2022-11-25T05:19:25;97699.19;;;3.12;87.34
75513;BME280;64090;49.770;18.760;2022-11-25T05:21:28;97702.27;;;3.11;87.42
75513;BME280;64090;49.770;18.760;2022-11-25T05:23:31;97702.48;;;3.12;87.52
75513;BME280;64090;49.770;18.760;2022-11-25T05:25:34;97702.84;;;3.14;87.52
75513;BME280;64090;49.770;18.760;2022-11-25T05:27:37;97705.52;;;3.15;87.65
75513;BME280;64090;49.770;18.760;2022-11-25T05:29:39;97706.14;;;3.16;87.52
75513;BME280;64090;49.770;18.760;2022-11-25T05:31:42;97707.55;;;3.17;87.69
75513;BME280;64090;49.770;18.760;2022-11-25T05:33:46;97708.61;;;3.20;87.78
75513;BME280;64090;49.770;18.760;2022-11-25T05:36:00;97711.34;;;3.21;87.75
75513;BME280;64090;49.770;18.760;2022-11-25T05:38:03;97708.45;;;3.20;87.82
75513;BME280;64090;49.770;18.760;2022-11-25T05:40:06;97710.66;;;3.19;87.75
75513;BME280;64090;49.770;18.760;2022-11-25T05:42:09;97710.59;;;3.20;87.63
75513;BME280;64090;49.770;18.760;2022-11-25T05:44:12;97711.38;;;3.22;87.69
75513;BME280;64090;49.770;18.760;2022-11-25T05:46:21;97713.30;;;3.26;87.61
75513;BME280;64090;49.770;18.760;2022-11-25T05:48:24;97710.99;;;3.29;87.32
75513;BME280;64090;49.770;18.760;2022-11-25T05:50:27;97712.02;;;3.30;87.42
75513;BME280;64090;49.770;18.760;2022-11-25T05:52:30;97710.71;;;3.31;87.57
75513;BME280;64090;49.770;18.760;2022-11-25T05:54:33;97711.41;;;3.32;87.69
75513;BME280;64090;49.770;18.760;2022-11-25T05:56:37;97709.57;;;3.31;87.81
75513;BME280;64090;49.770;18.760;2022-11-25T05:58:40;97711.20;;;3.29;87.74
75513;BME280;64090;49.770;18.760;2022-11-25T06:00:43;97715.09;;;3.25;87.74
75513;BME280;64090;49.770;18.760;2022-11-25T06:02:49;97714.66;;;3.23;87.75
75513;BME280;64090;49.770;18.760;2022-11-25T06:04:53;97717.09;;;3.23;87.72
75513;BME280;64090;49.770;18.760;2022-11-25T06:06:56;97717.09;;;3.21;87.55
75513;BME280;64090;49.770;18.760;2022-11-25T06:08:59;97717.48;;;3.21;87.56
75513;BME280;64090;49.770;18.760;2022-11-25T06:11:11;97715.38;;;3.21;87.54
75513;BME280;64090;49.770;18.760;2022-11-25T06:13:14;97717.29;;;3.23;87.68
75513;BME280;64090;49.770;18.760;2022-11-25T06:15:17;97716.61;;;3.24;87.74
75513;BME280;64090;49.770;18.760;2022-11-25T06:17:20;97720.04;;;3.27;87.83
75513;BME280;64090;49.770;18.760;2022-11-25T06:19:23;97722.66;;;3.29;87.71
75513;BME280;64090;49.770;18.760;2022-11-25T06:21:26;97725.43;;;3.29;87.60
75513;BME280;64090;49.770;18.760;2022-11-25T06:23:29;97727.76;;;3.30;87.62
75513;BME280;64090;49.770;18.760;2022-11-25T06:25:33;97735.93;;;3.32;87.48
75513;BME280;64090;49.770;18.760;2022-11-25T06:27:36;97734.42;;;3.37;87.23
75513;BME280;64090;49.770;18.760;2022-11-25T06:29:58;97732.92;;;3.41;87.18
75513;BME280;64090;49.770;18.760;2022-11-25T06:32:02;97734.88;;;3.45;87.08
75513;BME280;64090;49.770;18.760;2022-11-25T06:34:05;97739.86;;;3.48;87.17
75513;BME280;64090;49.770;18.760;2022-11-25T06:36:10;97740.01;;;3.51;87.09
75513;BME280;64090;49.770;18.760;2022-11-25T06:38:18;97743.61;;;3.49;87.14
75513;BME280;64090;49.770;18.760;2022-11-25T06:40:21;97746.27;;;3.47;87.08
75513;BME280;64090;49.770;18.760;2022-11-25T06:42:24;97747.20;;;3.51;87.05
75513;BME280;64090;49.770;18.760;2022-11-25T06:44:27;97748.16;;;3.54;86.94
75513;BME280;64090;49.770;18.760;2022-11-25T06:46:30;97749.78;;;3.59;86.92
75513;BME280;64090;49.770;18.760;2022-11-25T06:48:33;97747.36;;;3.65;86.76
75513;BME280;64090;49.770;18.760;2022-11-25T06:50:36;97748.38;;;3.69;86.81
75513;BME280;64090;49.770;18.760;2022-11-25T06:52:39;97749.67;;;3.72;86.75
75513;BME280;64090;49.770;18.760;2022-11-25T06:54:42;97748.99;;;3.77;86.92
75513;BME280;64090;49.770;18.760;2022-11-25T06:56:45;97751.60;;;3.85;86.99
75513;BME280;64090;49.770;18.760;2022-11-25T06:58:53;97756.38;;;3.91;86.89
75513;BME280;64090;49.770;18.760;2022-11-25T07:01:01;97763.41;;;3.91;86.77
75513;BME280;64090;49.770;18.760;2022-11-25T07:03:04;97765.75;;;3.92;86.71
75513;BME280;64090;49.770;18.760;2022-11-25T07:05:07;97767.30;;;3.93;86.69
75513;BME280;64090;49.770;18.760;2022-11-25T07:07:10;97770.10;;;3.93;86.58
75513;BME280;64090;49.770;18.760;2022-11-25T07:09:13;97769.70;;;3.95;86.60
75513;BME280;64090;49.770;18.760;2022-11-25T07:11:19;97772.10;;;3.94;86.62
75513;BME280;64090;49.770;18.760;2022-11-25T07:13:22;97775.36;;;3.93;86.64
75513;BME280;64090;49.770;18.760;2022-11-25T07:15:25;97772.95;;;3.92;86.75
75513;BME280;64090;49.770;18.760;2022-11-25T07:17:28;97773.48;;;3.94;86.96
75513;BME280;64090;49.770;18.760;2022-11-25T07:19:31;97772.33;;;3.95;87.00
75513;BME280;64090;49.770;18.760;2022-11-25T07:21:37;97773.13;;;3.97;87.07
75513;BME280;64090;49.770;18.760;2022-11-25T07:23:41;97776.45;;;4.04;87.14
75513;BME280;64090;49.770;18.760;2022-11-25T07:25:44;97779.29;;;4.12;87.03
75513;BME280;64090;49.770;18.760;2022-11-25T07:27:47;97785.02;;;4.19;87.22
75513;BME280;64090;49.770;18.760;2022-11-25T07:29:50;97785.24;;;4.26;86.93
75513;BME280;64090;49.770;18.760;2022-11-25T07:32:12;97787.75;;;4.33;86.37
75513;BME280;64090;49.770;18.760;2022-11-25T07:34:18;97794.52;;;4.32;86.12
75513;BME280;64090;49.770;18.760;2022-11-25T07:36:25;97799.66;;;4.33;85.58
75513;BME280;64090;49.770;18.760;2022-11-25T07:38:29;97800.60;;;4.26;85.11
75513;BME280;64090;49.770;18.760;2022-11-25T07:40:31;97800.65;;;4.12;85.67
75513;BME280;64090;49.770;18.760;2022-11-25T07:42:34;97800.98;;;4.07;85.97
75513;BME280;64090;49.770;18.760;2022-11-25T07:44:37;97797.60;;;4.06;86.16
75513;BME280;64090;49.770;18.760;2022-11-25T07:46:42;97798.58;;;4.11;86.32
75513;BME280;64090;49.770;18.760;2022-11-25T07:48:46;97796.52;;;4.18;86.43
75513;BME280;64090;49.770;18.760;2022-11-25T07:50:49;97794.39;;;4.25;86.37
75513;BME280;64090;49.770;18.760;2022-11-25T07:52:52;97795.15;;;4.29;86.42
75513;BME280;64090;49.770;18.760;2022-11-25T07:54:55;97795.17;;;4.32;86.39
75513;BME280;64090;49.770;18.760;2022-11-25T07:56:58;97798.96;;;4.36;86.35
75513;BME280;64090;49.770;18.760;2022-11-25T07:59:01;97802.13;;;4.38;86.00
75513;BME280;64090;49.770;18.760;2022-11-25T08:01:06;97808.67;;;4.44;86.10
75513;BME280;64090;49.770;18.760;2022-11-25T08:03:09;97806.16;;;4.49;86.30
75513;BME280;64090;49.770;18.760;2022-11-25T08:05:12;97808.35;;;4.55;86.13
75513;BME280;64090;49.770;18.760;2022-11-25T08:07:14;97808.46;;;4.61;86.01
75513;BME280;64090;49.770;18.760;2022-11-25T08:09:19;97809.28;;;4.67;85.95
75513;BME280;64090;49.770;18.760;2022-11-25T08:11:25;97811.02;;;4.75;85.91
75513;BME280;64090;49.770;18.760;2022-11-25T08:13:28;97813.05;;;4.82;85.98
75513;BME280;64090;49.770;18.760;2022-11-25T08:15:32;97814.63;;;4.88;85.99
75513;BME280;64090;49.770;18.760;2022-11-25T08:17:34;97813.96;;;4.94;86.17
75513;BME280;64090;49.770;18.760;2022-11-25T08:19:37;97816.83;;;4.98;86.20
75513;BME280;64090;49.770;18.760;2022-11-25T08:21:41;97815.77;;;5.02;86.16
75513;BME280;64090;49.770;18.760;2022-11-25T08:23:45;97816.29;;;5.07;85.91
75513;BME280;64090;49.770;18.760;2022-11-25T08:25:50;97822.54;;;5.07;85.81
75513;BME280;64090;49.770;18.760;2022-11-25T08:27:53;97825.92;;;5.08;85.61
75513;BME280;64090;49.770;18.760;2022-11-25T08:29:56;97828.80;;;5.12;85.56
75513;BME280;64090;49.770;18.760;2022-11-25T08:31:59;97825.54;;;5.16;85.28
75513;BME280;64090;49.770;18.760;2022-11-25T08:34:03;97826.22;;;5.22;85.22
75513;BME280;64090;49.770;18.760;2022-11-25T08:36:07;97826.94;;;5.28;85.31
75513;BME280;64090;49.770;18.760;2022-11-25T08:38:10;97828.45;;;5.35;85.25
75513;BME280;64090;49.770;18.760;2022-11-25T08:40:14;97831.48;;;5.39;85.43
75513;BME280;64090;49.770;18.760;2022-11-25T08:42:17;97829.77;;;5.43;85.44
75513;BME280;64090;49.770;18.760;2022-11-25T08:44:20;97828.46;;;5.51;85.27
75513;BME280;64090;49.770;18.760;2022-11-25T08:46:25;97828.89;;;5.53;84.85
75513;BME280;64090;49.770;18.760;2022-11-25T08:48:29;97831.85;;;5.55;84.52
75513;BME280;64090;49.770;18.760;2022-11-25T08:50:32;97831.86;;;5.60;84.66
75513;BME280;64090;49.770;18.760;2022-11-25T08:52:35;97836.61;;;5.64;84.49
75513;BME280;64090;49.770;18.760;2022-11-25T08:54:37;97833.53;;;5.72;84.37
75513;BME280;64090;49.770;18.760;2022-11-25T08:56:40;97836.73;;;5.79;84.71
75513;BME280;64090;49.770;18.760;2022-11-25T08:58:45;97833.13;;;5.84;84.61
75513;BME280;64090;49.770;18.760;2022-11-25T09:00:48;97837.09;;;5.93;84.71
75513;BME280;64090;49.770;18.760;2022-11-25T09:02:50;97837.23;;;6.01;84.53
75513;BME280;64090;49.770;18.760;2022-11-25T09:04:53;97840.15;;;6.08;84.51
75513;BME280;64090;49.770;18.760;2022-11-25T09:06:56;97835.52;;;6.14;83.77
75513;BME280;64090;49.770;18.760;2022-11-25T09:08:59;97833.80;;;6.18;83.75
75513;BME280;64090;49.770;18.760;2022-11-25T09:11:03;97836.77;;;6.24;83.73
75513;BME280;64090;49.770;18.760;2022-11-25T09:13:06;97837.52;;;6.30;83.16
75513;BME280;64090;49.770;18.760;2022-11-25T09:15:11;97837.70;;;6.36;82.85
75513;BME280;64090;49.770;18.760;2022-11-25T09:17:14;97841.73;;;6.46;83.26
75513;BME280;64090;49.770;18.760;2022-11-25T09:19:18;97842.45;;;6.54;82.95
75513;BME280;64090;49.770;18.760;2022-11-25T09:21:21;97845.20;;;6.61;82.37
75513;BME280;64090;49.770;18.760;2022-11-25T09:23:26;97847.65;;;6.69;82.76
75513;BME280;64090;49.770;18.760;2022-11-25T09:25:29;97844.20;;;6.76;81.94
75513;BME280;64090;49.770;18.760;2022-11-25T09:27:32;97844.19;;;6.80;81.55
75513;BME280;64090;49.770;18.760;2022-11-25T09:29:35;97844.91;;;6.88;81.44
75513;BME280;64090;49.770;18.760;2022-11-25T09:31:39;97848.49;;;6.95;81.12
75513;BME280;64090;49.770;18.760;2022-11-25T09:33:42;97845.08;;;7.03;81.52
75513;BME280;64090;49.770;18.760;2022-11-25T09:35:45;97844.39;;;7.12;81.21
75513;BME280;64090;49.770;18.760;2022-11-25T09:37:49;97847.73;;;7.19;81.37
75513;BME280;64090;49.770;18.760;2022-11-25T09:39:52;97850.50;;;7.33;81.59
75513;BME280;64090;49.770;18.760;2022-11-25T09:42:33;97845.56;;;7.45;81.71
75513;BME280;64090;49.770;18.760;2022-11-25T09:45:22;97842.93;;;7.61;80.77
75513;BME280;64090;49.770;18.760;2022-11-25T09:50:20;97835.91;;;7.89;80.05
75513;BME280;64090;49.770;18.760;2022-11-25T09:59:40;97834.89;;;8.29;78.26
75513;BME280;64090;49.770;18.760;2022-11-25T10:01:52;97836.71;;;8.36;77.62
75513;BME280;64090;49.770;18.760;2022-11-25T10:04:04;97833.73;;;8.42;77.39
75513;BME280;64090;49.770;18.760;2022-11-25T10:06:17;97824.39;;;8.44;78.49
75513;BME280;64090;49.770;18.760;2022-11-25T10:08:27;97828.80;;;8.53;77.91
75513;BME280;64090;49.770;18.760;2022-11-25T10:10:40;97831.52;;;8.56;76.55
75513;BME280;64090;49.770;18.760;2022-11-25T10:12:44;97829.09;;;8.54;75.42
75513;BME280;64090;49.770;18.760;2022-11-25T10:14:50;97824.79;;;8.56;76.50
75513;BME280;64090;49.770;18.760;2022-11-25T10:17:20;97828.33;;;8.56;76.12
75513;BME280;64090;49.770;18.760;2022-11-25T10:21:42;97831.22;;;8.65;76.98
75513;BME280;64090;49.770;18.760;2022-11-25T10:26:42;97836.80;;;8.73;75.52
75513;BME280;64090;49.770;18.760;2022-11-25T10:28:52;97834.90;;;8.71;74.36
75513;BME280;64090;49.770;18.760;2022-11-25T10:31:05;97837.25;;;8.72;74.86
75513;BME280;64090;49.770;18.760;2022-11-25T10:33:19;97836.69;;;8.64;74.73
75513;BME280;64090;49.770;18.760;2022-11-25T10:35:30;97838.39;;;8.60;74.17
75513;BME280;64090;49.770;18.760;2022-11-25T10:37:39;97840.89;;;8.60;74.75
75513;BME280;64090;49.770;18.760;2022-11-25T10:39:43;97838.18;;;8.59;74.28
75513;BME280;64090;49.770;18.760;2022-11-25T10:44:14;97833.15;;;8.65;74.19
75513;BME280;64090;49.770;18.760;2022-11-25T10:49:19;97834.71;;;8.71;75.28
75513;BME280;64090;49.770;18.760;2022-11-25T10:51:50;97831.48;;;8.76;74.07
75513;BME280;64090;49.770;18.760;2022-11-25T10:54:12;97836.66;;;8.72;73.63
75513;BME280;64090;49.770;18.760;2022-11-25T10:56:17;97840.13;;;8.76;74.55
75513;BME280;64090;49.770;18.760;2022-11-25T10:58:38;97840.14;;;8.77;73.90
75513;BME280;64090;49.770;18.760;2022-11-25T11:00:41;97837.09;;;8.73;73.83
75513;BME280;64090;49.770;18.760;2022-11-25T11:02:44;97832.31;;;8.69;73.71
75513;BME280;64090;49.770;18.760;2022-11-25T11:07:13;97832.71;;;8.63;74.20
75513;BME280;64090;49.770;18.760;2022-11-25T11:09:36;97831.03;;;8.66;75.04
75513;BME280;64090;49.770;18.760;2022-11-25T11:11:47;97830.06;;;8.62;72.95
75513;BME280;64090;49.770;18.760;2022-11-25T11:13:57;97826.23;;;8.54;72.41
75513;BME280;64090;49.770;18.760;2022-11-25T11:16:02;97832.93;;;8.56;73.12
75513;BME280;64090;49.770;18.760;2022-11-25T11:20:29;97828.52;;;8.61;73.97
75513;BME280;64090;49.770;18.760;2022-11-25T11:22:34;97827.38;;;8.63;73.50
75513;BME280;64090;49.770;18.760;2022-11-25T11:24:37;97825.45;;;8.69;74.42
75513;BME280;64090;49.770;18.760;2022-11-25T11:26:41;97825.38;;;8.73;74.50
75513;BME280;64090;49.770;18.760;2022-11-25T11:28:44;97826.70;;;8.75;74.21
75513;BME280;64090;49.770;18.760;2022-11-25T11:31:00;97828.79;;;8.80;74.72
75513;BME280;64090;49.770;18.760;2022-11-25T11:33:08;97831.95;;;8.79;73.89
75513;BME280;64090;49.770;18.760;2022-11-25T11:35:30;97834.73;;;8.81;74.12
75513;BME280;64090;49.770;18.760;2022-11-25T11:38:28;97834.42;;;8.90;74.07
75513;BME280;64090;49.770;18.760;2022-11-25T11:40:37;97836.95;;;9.02;74.39
75513;BME280;64090;49.770;18.760;2022-11-25T11:47:41;97833.86;;;9.09;72.60